sensor_id;sensor_type;location;lat;lon;timestamp;temperature;humidity
44705;DHT22;30431;48.520;9.046;2022-10-16T00:01:18;14.10;99.90
44705;DHT22;30431;48.520;9.046;2022-10-16T00:03:47;14.10;99.90
44705;DHT22;30431;48.520;9.046;2022-10-16T00:06:16;14.00;99.90
44705;DHT22;30431;48.520;9.046;2022-10-16T00:08:44;14.00;99.90
44705;DHT22;30431;48.520;9.046;2022-10-16T00:11:41;14.00;99.90
44705;DHT22;30431;48.520;9.046;2022-10-16T00:14:12;13.90;99.90
44705;DHT22;30431;48.520;9.046;2022-10-16T00:16:41;13.80;99.90
44705;DHT22;30431;48.520;9.046;2022-10-16T00:19:14;13.80;99.90
44705;DHT22;30431;48.520;9.046;2022-10-16T00:21:44;13.70;99.90
44705;DHT22;30431;48.520;9.046;2022-10-16T00:24:12;13.70;99.90
44705;DHT22;30431;48.520;9.046;2022-10-16T00:26:40;13.60;99.90
44705;DHT22;30431;48.520;9.046;2022-10-16T00:29:12;13.60;99.90
44705;DHT22;30431;48.520;9.046;2022-10-16T00:31:39;13.60;99.90
44705;DHT22;30431;48.520;9.046;2022-10-16T00:34:09;13.50;99.90
44705;DHT22;30431;48.520;9.046;2022-10-16T00:36:36;13.50;99.90
44705;DHT22;30431;48.520;9.046;2022-10-16T00:39:03;13.50;99.90
44705;DHT22;30431;48.520;9.046;2022-10-16T00:41:32;13.40;99.90
44705;DHT22;30431;48.520;9.046;2022-10-16T00:44:03;13.40;99.90
44705;DHT22;30431;48.520;9.046;2022-10-16T00:49:49;13.40;99.90
44705;DHT22;30431;48.520;9.046;2022-10-16T00:52:17;13.40;99.90
44705;DHT22;30431;48.520;9.046;2022-10-16T00:54:49;13.40;99.90
44705;DHT22;30431;48.520;9.046;2022-10-16T00:57:17;13.40;99.90
44705;DHT22;30431;48.520;9.046;2022-10-16T00:59:53;13.40;99.90
44705;DHT22;30431;48.520;9.046;2022-10-16T01:02:20;13.40;99.90
44705;DHT22;30431;48.520;9.046;2022-10-16T01:04:51;13.40;99.90
44705;DHT22;30431;48.520;9.046;2022-10-16T01:07:40;13.40;99.90
44705;DHT22;30431;48.520;9.046;2022-10-16T01:10:14;13.40;99.90
44705;DHT22;30431;48.520;9.046;2022-10-16T01:13:34;13.40;99.90
44705;DHT22;30431;48.520;9.046;2022-10-16T01:19:14;13.50;99.90
44705;DHT22;30431;48.520;9.046;2022-10-16T01:21:44;13.40;99.90
44705;DHT22;30431;48.520;9.046;2022-10-16T01:27:10;13.40;99.90
44705;DHT22;30431;48.520;9.046;2022-10-16T01:35:11;13.50;99.90
44705;DHT22;30431;48.520;9.046;2022-10-16T01:38:39;13.50;99.90
44705;DHT22;30431;48.520;9.046;2022-10-16T01:41:22;13.50;99.90
44705;DHT22;30431;48.520;9.046;2022-10-16T01:44:04;13.60;99.90
44705;DHT22;30431;48.520;9.046;2022-10-16T01:46:50;13.60;99.90
44705;DHT22;30431;48.520;9.046;2022-10-16T01:49:39;13.60;99.90
44705;DHT22;30431;48.520;9.046;2022-10-16T01:52:25;13.80;99.90
44705;DHT22;30431;48.520;9.046;2022-10-16T01:54:56;13.80;99.90
44705;DHT22;30431;48.520;9.046;2022-10-16T01:58:05;13.80;99.90
44705;DHT22;30431;48.520;9.046;2022-10-16T02:00:42;13.80;99.90
44705;DHT22;30431;48.520;9.046;2022-10-16T02:03:54;13.80;99.90
44705;DHT22;30431;48.520;9.046;2022-10-16T02:06:26;13.80;99.90
44705;DHT22;30431;48.520;9.046;2022-10-16T02:08:56;13.80;99.90
44705;DHT22;30431;48.520;9.046;2022-10-16T02:11:26;13.80;99.90
44705;DHT22;30431;48.520;9.046;2022-10-16T02:14:09;13.80;99.90
44705;DHT22;30431;48.520;9.046;2022-10-16T02:16:43;13.80;99.90
44705;DHT22;30431;48.520;9.046;2022-10-16T02:19:13;13.80;99.90
44705;DHT22;30431;48.520;9.046;2022-10-16T02:27:38;13.80;99.90
44705;DHT22;30431;48.520;9.046;2022-10-16T02:29:49;13.80;99.90
44705;DHT22;30431;48.520;9.046;2022-10-16T02:32:23;13.80;99.90
44705;DHT22;30431;48.520;9.046;2022-10-16T02:35:30;13.80;99.90
44705;DHT22;30431;48.520;9.046;2022-10-16T02:37:59;13.70;99.90
44705;DHT22;30431;48.520;9.046;2022-10-16T02:40:29;13.70;99.90
44705;DHT22;30431;48.520;9.046;2022-10-16T02:42:59;13.70;99.90
44705;DHT22;30431;48.520;9.046;2022-10-16T02:45:26;13.70;99.90
44705;DHT22;30431;48.520;9.046;2022-10-16T02:47:53;13.70;99.90
44705;DHT22;30431;48.520;9.046;2022-10-16T02:50:21;13.70;99.90
44705;DHT22;30431;48.520;9.046;2022-10-16T02:52:49;13.70;99.90
44705;DHT22;30431;48.520;9.046;2022-10-16T02:55:16;13.60;99.90
44705;DHT22;30431;48.520;9.046;2022-10-16T02:57:44;13.60;99.90
44705;DHT22;30431;48.520;9.046;2022-10-16T03:00:17;13.60;99.90
44705;DHT22;30431;48.520;9.046;2022-10-16T03:02:44;13.60;99.90
44705;DHT22;30431;48.520;9.046;2022-10-16T03:05:11;13.50;99.90
44705;DHT22;30431;48.520;9.046;2022-10-16T03:07:40;13.50;99.90
44705;DHT22;30431;48.520;9.046;2022-10-16T03:10:09;13.50;99.90
44705;DHT22;30431;48.520;9.046;2022-10-16T03:12:38;13.50;99.90
44705;DHT22;30431;48.520;9.046;2022-10-16T03:15:06;13.50;99.90
44705;DHT22;30431;48.520;9.046;2022-10-16T03:17:57;13.60;99.90
44705;DHT22;30431;48.520;9.046;2022-10-16T03:20:27;13.60;99.90
44705;DHT22;30431;48.520;9.046;2022-10-16T03:22:56;13.60;99.90
44705;DHT22;30431;48.520;9.046;2022-10-16T03:25:24;13.50;99.90
44705;DHT22;30431;48.520;9.046;2022-10-16T03:28:19;13.50;99.90
44705;DHT22;30431;48.520;9.046;2022-10-16T03:30:47;13.50;99.90
44705;DHT22;30431;48.520;9.046;2022-10-16T03:33:14;13.50;99.90
44705;DHT22;30431;48.520;9.046;2022-10-16T03:35:51;13.50;99.90
44705;DHT22;30431;48.520;9.046;2022-10-16T03:38:20;13.40;99.90
44705;DHT22;30431;48.520;9.046;2022-10-16T03:40:50;13.40;99.90
44705;DHT22;30431;48.520;9.046;2022-10-16T03:43:17;13.40;99.90
44705;DHT22;30431;48.520;9.046;2022-10-16T03:45:45;13.40;99.90
44705;DHT22;30431;48.520;9.046;2022-10-16T03:48:14;13.40;99.90
44705;DHT22;30431;48.520;9.046;2022-10-16T03:50:43;13.40;99.90
44705;DHT22;30431;48.520;9.046;2022-10-16T03:53:10;13.40;99.90
44705;DHT22;30431;48.520;9.046;2022-10-16T03:55:38;13.40;99.90
44705;DHT22;30431;48.520;9.046;2022-10-16T03:58:05;13.40;99.90
44705;DHT22;30431;48.520;9.046;2022-10-16T04:00:34;13.40;99.90
44705;DHT22;30431;48.520;9.046;2022-10-16T04:03:01;13.40;99.90
44705;DHT22;30431;48.520;9.046;2022-10-16T04:05:28;13.40;99.90
44705;DHT22;30431;48.520;9.046;2022-10-16T04:07:55;13.30;99.90
44705;DHT22;30431;48.520;9.046;2022-10-16T04:10:26;13.30;99.90
44705;DHT22;30431;48.520;9.046;2022-10-16T04:12:54;13.30;99.90
44705;DHT22;30431;48.520;9.046;2022-10-16T04:15:23;13.30;99.90
44705;DHT22;30431;48.520;9.046;2022-10-16T04:17:51;13.30;99.90
44705;DHT22;30431;48.520;9.046;2022-10-16T04:20:19;13.20;99.90
44705;DHT22;30431;48.520;9.046;2022-10-16T04:22:47;13.20;99.90
44705;DHT22;30431;48.520;9.046;2022-10-16T04:25:15;13.20;99.90
44705;DHT22;30431;48.520;9.046;2022-10-16T04:27:42;13.20;99.90
44705;DHT22;30431;48.520;9.046;2022-10-16T04:30:12;13.20;99.90
44705;DHT22;30431;48.520;9.046;2022-10-16T04:32:42;13.20;99.90
44705;DHT22;30431;48.520;9.046;2022-10-16T04:35:11;13.20;99.90
44705;DHT22;30431;48.520;9.046;2022-10-16T04:37:38;13.20;99.90
44705;DHT22;30431;48.520;9.046;2022-10-16T04:40:06;13.30;99.90
44705;DHT22;30431;48.520;9.046;2022-10-16T04:42:33;13.30;99.90
44705;DHT22;30431;48.520;9.046;2022-10-16T04:45:00;13.30;99.90
44705;DHT22;30431;48.520;9.046;2022-10-16T04:47:27;13.30;99.90
44705;DHT22;30431;48.520;9.046;2022-10-16T04:49:55;13.30;99.90
44705;DHT22;30431;48.520;9.046;2022-10-16T04:52:24;13.30;99.90
44705;DHT22;30431;48.520;9.046;2022-10-16T04:54:52;13.30;99.90
44705;DHT22;30431;48.520;9.046;2022-10-16T04:57:20;13.30;99.90
44705;DHT22;30431;48.520;9.046;2022-10-16T04:59:51;13.30;99.90
44705;DHT22;30431;48.520;9.046;2022-10-16T05:02:19;13.30;99.90
44705;DHT22;30431;48.520;9.046;2022-10-16T05:04:46;13.20;99.90
44705;DHT22;30431;48.520;9.046;2022-10-16T05:07:13;13.20;99.90
44705;DHT22;30431;48.520;9.046;2022-10-16T05:09:40;13.10;99.90
44705;DHT22;30431;48.520;9.046;2022-10-16T05:12:10;13.00;99.90
44705;DHT22;30431;48.520;9.046;2022-10-16T05:14:39;13.00;99.90
44705;DHT22;30431;48.520;9.046;2022-10-16T05:17:06;12.90;99.90
44705;DHT22;30431;48.520;9.046;2022-10-16T05:19:33;12.90;99.90
44705;DHT22;30431;48.520;9.046;2022-10-16T05:22:09;12.80;99.90
44705;DHT22;30431;48.520;9.046;2022-10-16T05:24:37;12.80;99.90
44705;DHT22;30431;48.520;9.046;2022-10-16T05:27:04;12.70;99.90
44705;DHT22;30431;48.520;9.046;2022-10-16T05:29:37;12.70;99.90
44705;DHT22;30431;48.520;9.046;2022-10-16T05:32:32;12.60;99.90
44705;DHT22;30431;48.520;9.046;2022-10-16T05:34:59;12.60;99.90
44705;DHT22;30431;48.520;9.046;2022-10-16T05:37:29;12.50;99.90
44705;DHT22;30431;48.520;9.046;2022-10-16T05:39:57;12.60;99.90
44705;DHT22;30431;48.520;9.046;2022-10-16T05:42:28;12.60;99.90
44705;DHT22;30431;48.520;9.046;2022-10-16T05:44:56;12.50;99.90
44705;DHT22;30431;48.520;9.046;2022-10-16T05:47:28;12.60;99.90
44705;DHT22;30431;48.520;9.046;2022-10-16T05:49:55;12.60;99.90
44705;DHT22;30431;48.520;9.046;2022-10-16T05:52:22;12.70;99.90
44705;DHT22;30431;48.520;9.046;2022-10-16T05:54:53;12.70;99.90
44705;DHT22;30431;48.520;9.046;2022-10-16T05:57:20;12.80;99.90
44705;DHT22;30431;48.520;9.046;2022-10-16T05:59:49;12.90;99.90
44705;DHT22;30431;48.520;9.046;2022-10-16T06:02:19;12.90;99.90
44705;DHT22;30431;48.520;9.046;2022-10-16T06:04:46;12.90;99.90
44705;DHT22;30431;48.520;9.046;2022-10-16T06:07:13;12.90;99.90
44705;DHT22;30431;48.520;9.046;2022-10-16T06:09:43;13.00;99.90
44705;DHT22;30431;48.520;9.046;2022-10-16T06:12:12;13.00;99.90
44705;DHT22;30431;48.520;9.046;2022-10-16T06:14:44;13.00;99.90
44705;DHT22;30431;48.520;9.046;2022-10-16T06:17:14;13.00;99.90
44705;DHT22;30431;48.520;9.046;2022-10-16T06:19:44;13.00;99.90
44705;DHT22;30431;48.520;9.046;2022-10-16T06:22:12;13.00;99.90
44705;DHT22;30431;48.520;9.046;2022-10-16T06:24:39;13.00;99.90
44705;DHT22;30431;48.520;9.046;2022-10-16T06:27:07;13.00;99.90
44705;DHT22;30431;48.520;9.046;2022-10-16T06:29:34;13.10;99.90
44705;DHT22;30431;48.520;9.046;2022-10-16T06:32:03;13.10;99.90
44705;DHT22;30431;48.520;9.046;2022-10-16T06:34:31;13.20;99.90
44705;DHT22;30431;48.520;9.046;2022-10-16T06:36:58;13.30;99.90
44705;DHT22;30431;48.520;9.046;2022-10-16T06:39:27;13.60;99.90
44705;DHT22;30431;48.520;9.046;2022-10-16T06:41:57;13.70;99.90
44705;DHT22;30431;48.520;9.046;2022-10-16T06:44:36;13.90;99.90
44705;DHT22;30431;48.520;9.046;2022-10-16T06:47:04;14.00;99.90
44705;DHT22;30431;48.520;9.046;2022-10-16T06:49:36;14.10;99.90
44705;DHT22;30431;48.520;9.046;2022-10-16T06:52:03;14.20;99.90
44705;DHT22;30431;48.520;9.046;2022-10-16T06:54:31;14.40;99.90
44705;DHT22;30431;48.520;9.046;2022-10-16T06:57:08;14.40;99.90
44705;DHT22;30431;48.520;9.046;2022-10-16T06:59:38;14.50;99.90
44705;DHT22;30431;48.520;9.046;2022-10-16T07:02:05;14.60;99.90
44705;DHT22;30431;48.520;9.046;2022-10-16T07:04:36;14.60;99.90
44705;DHT22;30431;48.520;9.046;2022-10-16T07:07:03;14.70;99.90
44705;DHT22;30431;48.520;9.046;2022-10-16T07:09:37;14.80;99.90
44705;DHT22;30431;48.520;9.046;2022-10-16T07:12:09;14.90;99.90
44705;DHT22;30431;48.520;9.046;2022-10-16T07:14:36;14.90;99.90
44705;DHT22;30431;48.520;9.046;2022-10-16T07:17:06;15.10;99.90
44705;DHT22;30431;48.520;9.046;2022-10-16T07:19:34;15.10;99.90
44705;DHT22;30431;48.520;9.046;2022-10-16T07:22:01;15.20;99.90
44705;DHT22;30431;48.520;9.046;2022-10-16T07:24:28;15.20;99.90
44705;DHT22;30431;48.520;9.046;2022-10-16T07:26:57;15.30;99.90
44705;DHT22;30431;48.520;9.046;2022-10-16T07:29:24;15.40;99.90
44705;DHT22;30431;48.520;9.046;2022-10-16T07:31:51;15.40;99.90
44705;DHT22;30431;48.520;9.046;2022-10-16T07:34:21;15.40;99.90
44705;DHT22;30431;48.520;9.046;2022-10-16T07:36:49;15.20;99.90
44705;DHT22;30431;48.520;9.046;2022-10-16T07:39:17;15.20;99.90
44705;DHT22;30431;48.520;9.046;2022-10-16T07:41:44;15.40;99.90
44705;DHT22;30431;48.520;9.046;2022-10-16T07:44:11;15.30;99.90
44705;DHT22;30431;48.520;9.046;2022-10-16T07:46:38;15.30;99.90
44705;DHT22;30431;48.520;9.046;2022-10-16T07:49:05;15.40;99.90
44705;DHT22;30431;48.520;9.046;2022-10-16T07:51:32;15.70;99.90
44705;DHT22;30431;48.520;9.046;2022-10-16T07:53:59;15.80;99.90
44705;DHT22;30431;48.520;9.046;2022-10-16T07:56:31;15.80;99.90
44705;DHT22;30431;48.520;9.046;2022-10-16T07:59:01;15.70;99.90
44705;DHT22;30431;48.520;9.046;2022-10-16T08:01:33;15.70;99.90
44705;DHT22;30431;48.520;9.046;2022-10-16T08:04:00;15.80;99.90
44705;DHT22;30431;48.520;9.046;2022-10-16T08:06:27;15.90;99.90
44705;DHT22;30431;48.520;9.046;2022-10-16T08:08:56;16.00;99.90
44705;DHT22;30431;48.520;9.046;2022-10-16T08:11:23;16.20;99.90
44705;DHT22;30431;48.520;9.046;2022-10-16T08:13:51;16.40;99.90
44705;DHT22;30431;48.520;9.046;2022-10-16T08:16:23;16.70;99.90
44705;DHT22;30431;48.520;9.046;2022-10-16T08:18:50;16.80;99.90
44705;DHT22;30431;48.520;9.046;2022-10-16T08:21:20;17.00;99.90
44705;DHT22;30431;48.520;9.046;2022-10-16T08:23:49;17.20;99.90
44705;DHT22;30431;48.520;9.046;2022-10-16T08:26:29;17.30;99.90
44705;DHT22;30431;48.520;9.046;2022-10-16T08:28:56;17.50;99.90
44705;DHT22;30431;48.520;9.046;2022-10-16T08:31:34;17.70;99.90
44705;DHT22;30431;48.520;9.046;2022-10-16T08:34:06;17.70;99.90
44705;DHT22;30431;48.520;9.046;2022-10-16T08:36:34;17.90;99.90
44705;DHT22;30431;48.520;9.046;2022-10-16T08:39:01;17.90;99.90
44705;DHT22;30431;48.520;9.046;2022-10-16T08:45:01;17.50;99.90
44705;DHT22;30431;48.520;9.046;2022-10-16T08:47:48;17.60;99.90
44705;DHT22;30431;48.520;9.046;2022-10-16T08:50:27;17.50;99.90
44705;DHT22;30431;48.520;9.046;2022-10-16T08:52:55;17.60;99.90
44705;DHT22;30431;48.520;9.046;2022-10-16T08:55:30;17.70;99.90
44705;DHT22;30431;48.520;9.046;2022-10-16T08:58:02;17.90;99.90
44705;DHT22;30431;48.520;9.046;2022-10-16T09:00:30;17.90;99.90
44705;DHT22;30431;48.520;9.046;2022-10-16T09:06:41;17.70;99.90
44705;DHT22;30431;48.520;9.046;2022-10-16T09:12:21;17.90;99.90
44705;DHT22;30431;48.520;9.046;2022-10-16T09:21:10;18.60;99.90
44705;DHT22;30431;48.520;9.046;2022-10-16T09:23:19;18.70;99.90
44705;DHT22;30431;48.520;9.046;2022-10-16T09:25:53;19.00;99.90
44705;DHT22;30431;48.520;9.046;2022-10-16T09:28:26;19.30;99.90
44705;DHT22;30431;48.520;9.046;2022-10-16T09:30:58;19.40;99.90
44705;DHT22;30431;48.520;9.046;2022-10-16T09:33:36;19.30;99.90
44705;DHT22;30431;48.520;9.046;2022-10-16T09:36:06;19.30;99.90
44705;DHT22;30431;48.520;9.046;2022-10-16T09:38:35;19.50;99.90
44705;DHT22;30431;48.520;9.046;2022-10-16T09:41:18;19.50;99.90
44705;DHT22;30431;48.520;9.046;2022-10-16T09:43:55;19.40;99.90
44705;DHT22;30431;48.520;9.046;2022-10-16T09:46:32;19.30;99.90
44705;DHT22;30431;48.520;9.046;2022-10-16T09:49:25;19.00;99.90
44705;DHT22;30431;48.520;9.046;2022-10-16T09:52:20;18.80;99.90
44705;DHT22;30431;48.520;9.046;2022-10-16T09:55:16;18.80;99.90
44705;DHT22;30431;48.520;9.046;2022-10-16T09:57:53;18.70;99.90
44705;DHT22;30431;48.520;9.046;2022-10-16T10:00:26;18.60;99.90
44705;DHT22;30431;48.520;9.046;2022-10-16T10:02:57;18.40;99.90
44705;DHT22;30431;48.520;9.046;2022-10-16T10:05:28;18.40;99.90
44705;DHT22;30431;48.520;9.046;2022-10-16T10:08:00;18.40;99.90
44705;DHT22;30431;48.520;9.046;2022-10-16T10:10:38;18.50;99.90
44705;DHT22;30431;48.520;9.046;2022-10-16T10:13:29;18.60;99.90
44705;DHT22;30431;48.520;9.046;2022-10-16T10:16:25;18.60;99.90
44705;DHT22;30431;48.520;9.046;2022-10-16T10:18:59;18.80;99.90
44705;DHT22;30431;48.520;9.046;2022-10-16T10:21:29;18.80;99.90
44705;DHT22;30431;48.520;9.046;2022-10-16T10:23:59;18.90;99.90
44705;DHT22;30431;48.520;9.046;2022-10-16T10:26:31;19.10;99.90
44705;DHT22;30431;48.520;9.046;2022-10-16T10:29:06;19.50;99.90
44705;DHT22;30431;48.520;9.046;2022-10-16T10:40:13;20.60;99.90
44705;DHT22;30431;48.520;9.046;2022-10-16T10:42:53;20.70;99.90
44705;DHT22;30431;48.520;9.046;2022-10-16T10:45:41;20.70;99.90
44705;DHT22;30431;48.520;9.046;2022-10-16T10:54:10;20.80;99.90
44705;DHT22;30431;48.520;9.046;2022-10-16T11:02:46;21.20;99.90
44705;DHT22;30431;48.520;9.046;2022-10-16T11:05:32;21.70;99.90
44705;DHT22;30431;48.520;9.046;2022-10-16T11:08:32;22.20;99.90
44705;DHT22;30431;48.520;9.046;2022-10-16T11:14:23;22.90;99.90
44705;DHT22;30431;48.520;9.046;2022-10-16T11:25:13;23.40;99.90
44705;DHT22;30431;48.520;9.046;2022-10-16T11:33:37;23.10;99.90
44705;DHT22;30431;48.520;9.046;2022-10-16T11:39:02;22.90;99.90
44705;DHT22;30431;48.520;9.046;2022-10-16T11:46:58;22.90;99.80
44705;DHT22;30431;48.520;9.046;2022-10-16T11:53:23;22.70;99.90
44705;DHT22;30431;48.520;9.046;2022-10-16T11:55:56;22.50;97.40
44705;DHT22;30431;48.520;9.046;2022-10-16T11:58:36;22.60;98.10
44705;DHT22;30431;48.520;9.046;2022-10-16T12:07:39;22.60;97.80
44705;DHT22;30431;48.520;9.046;2022-10-16T12:10:29;22.40;96.50
44705;DHT22;30431;48.520;9.046;2022-10-16T12:18:45;22.40;95.50
44705;DHT22;30431;48.520;9.046;2022-10-16T12:21:14;22.80;95.10
44705;DHT22;30431;48.520;9.046;2022-10-16T12:23:58;23.00;93.80
44705;DHT22;30431;48.520;9.046;2022-10-16T12:26:29;23.30;94.60
44705;DHT22;30431;48.520;9.046;2022-10-16T12:29:13;23.20;94.20
44705;DHT22;30431;48.520;9.046;2022-10-16T12:31:46;23.00;95.10
44705;DHT22;30431;48.520;9.046;2022-10-16T12:37:27;23.10;94.50
44705;DHT22;30431;48.520;9.046;2022-10-16T12:39:58;23.10;93.70
44705;DHT22;30431;48.520;9.046;2022-10-16T12:44:56;23.10;93.20
44705;DHT22;30431;48.520;9.046;2022-10-16T12:49:52;23.20;93.40
44705;DHT22;30431;48.520;9.046;2022-10-16T12:52:39;23.30;93.00
44705;DHT22;30431;48.520;9.046;2022-10-16T12:55:20;23.40;92.20
44705;DHT22;30431;48.520;9.046;2022-10-16T13:04:39;23.20;91.80
44705;DHT22;30431;48.520;9.046;2022-10-16T13:10:05;23.00;93.20
44705;DHT22;30431;48.520;9.046;2022-10-16T13:15:35;22.80;92.60
44705;DHT22;30431;48.520;9.046;2022-10-16T13:28:51;22.80;94.40
44705;DHT22;30431;48.520;9.046;2022-10-16T13:31:20;22.90;95.20
44705;DHT22;30431;48.520;9.046;2022-10-16T13:33:55;22.80;95.60
44705;DHT22;30431;48.520;9.046;2022-10-16T13:36:43;22.70;95.70
44705;DHT22;30431;48.520;9.046;2022-10-16T13:39:15;22.70;95.60
44705;DHT22;30431;48.520;9.046;2022-10-16T13:41:44;22.70;95.90
44705;DHT22;30431;48.520;9.046;2022-10-16T13:44:19;22.60;96.00
44705;DHT22;30431;48.520;9.046;2022-10-16T13:46:57;22.40;95.40
44705;DHT22;30431;48.520;9.046;2022-10-16T13:49:24;22.30;96.70
44705;DHT22;30431;48.520;9.046;2022-10-16T13:51:55;22.30;96.50
44705;DHT22;30431;48.520;9.046;2022-10-16T13:54:24;22.40;96.40
44705;DHT22;30431;48.520;9.046;2022-10-16T13:57:04;22.60;96.00
44705;DHT22;30431;48.520;9.046;2022-10-16T13:59:54;22.70;96.20
44705;DHT22;30431;48.520;9.046;2022-10-16T14:02:24;22.90;95.20
44705;DHT22;30431;48.520;9.046;2022-10-16T14:04:55;23.00;95.10
44705;DHT22;30431;48.520;9.046;2022-10-16T14:07:47;23.00;94.30
44705;DHT22;30431;48.520;9.046;2022-10-16T14:10:31;22.90;94.60
44705;DHT22;30431;48.520;9.046;2022-10-16T14:13:04;22.90;93.90
44705;DHT22;30431;48.520;9.046;2022-10-16T14:15:33;23.00;93.20
44705;DHT22;30431;48.520;9.046;2022-10-16T14:18:04;23.00;93.30
44705;DHT22;30431;48.520;9.046;2022-10-16T14:20:36;23.00;93.40
44705;DHT22;30431;48.520;9.046;2022-10-16T14:23:19;23.00;92.90
44705;DHT22;30431;48.520;9.046;2022-10-16T14:25:50;23.10;92.90
44705;DHT22;30431;48.520;9.046;2022-10-16T14:28:25;23.20;93.00
44705;DHT22;30431;48.520;9.046;2022-10-16T14:30:58;23.30;92.10
44705;DHT22;30431;48.520;9.046;2022-10-16T14:38:33;23.40;92.10
44705;DHT22;30431;48.520;9.046;2022-10-16T14:41:01;23.20;91.60
44705;DHT22;30431;48.520;9.046;2022-10-16T14:43:36;23.10;91.80
44705;DHT22;30431;48.520;9.046;2022-10-16T14:46:20;23.00;91.70
44705;DHT22;30431;48.520;9.046;2022-10-16T14:48:53;22.90;92.80
44705;DHT22;30431;48.520;9.046;2022-10-16T14:51:25;22.80;92.60
44705;DHT22;30431;48.520;9.046;2022-10-16T14:53:55;22.70;92.20
44705;DHT22;30431;48.520;9.046;2022-10-16T14:56:30;22.60;91.60
44705;DHT22;30431;48.520;9.046;2022-10-16T14:59:02;22.40;92.20
44705;DHT22;30431;48.520;9.046;2022-10-16T15:01:29;22.30;91.80
44705;DHT22;30431;48.520;9.046;2022-10-16T15:03:56;22.20;93.20
44705;DHT22;30431;48.520;9.046;2022-10-16T15:06:25;22.00;92.80
44705;DHT22;30431;48.520;9.046;2022-10-16T15:08:52;21.90;93.20
44705;DHT22;30431;48.520;9.046;2022-10-16T15:11:19;21.80;94.30
44705;DHT22;30431;48.520;9.046;2022-10-16T15:13:46;21.80;95.30
44705;DHT22;30431;48.520;9.046;2022-10-16T15:16:16;21.70;96.50
44705;DHT22;30431;48.520;9.046;2022-10-16T15:18:49;21.60;97.00
44705;DHT22;30431;48.520;9.046;2022-10-16T15:21:42;21.40;97.80
44705;DHT22;30431;48.520;9.046;2022-10-16T15:24:12;21.30;98.50
44705;DHT22;30431;48.520;9.046;2022-10-16T15:26:45;21.20;98.00
44705;DHT22;30431;48.520;9.046;2022-10-16T15:29:16;21.20;97.90
44705;DHT22;30431;48.520;9.046;2022-10-16T15:31:43;21.20;97.60
44705;DHT22;30431;48.520;9.046;2022-10-16T15:34:14;21.10;98.30
44705;DHT22;30431;48.520;9.046;2022-10-16T15:36:42;21.10;99.20
44705;DHT22;30431;48.520;9.046;2022-10-16T15:39:19;21.10;99.90
44705;DHT22;30431;48.520;9.046;2022-10-16T15:41:48;21.00;99.90
44705;DHT22;30431;48.520;9.046;2022-10-16T15:44:23;20.90;99.90
44705;DHT22;30431;48.520;9.046;2022-10-16T15:46:54;20.70;99.90
44705;DHT22;30431;48.520;9.046;2022-10-16T15:49:24;20.60;99.90
44705;DHT22;30431;48.520;9.046;2022-10-16T15:51:51;20.50;99.90
44705;DHT22;30431;48.520;9.046;2022-10-16T15:54:19;20.40;99.90
44705;DHT22;30431;48.520;9.046;2022-10-16T15:56:49;20.20;99.90
44705;DHT22;30431;48.520;9.046;2022-10-16T15:59:20;20.20;99.90
44705;DHT22;30431;48.520;9.046;2022-10-16T16:01:47;20.00;99.90
44705;DHT22;30431;48.520;9.046;2022-10-16T16:04:14;19.90;99.90
44705;DHT22;30431;48.520;9.046;2022-10-16T16:07:01;19.80;99.90
44705;DHT22;30431;48.520;9.046;2022-10-16T16:09:33;19.60;99.90
44705;DHT22;30431;48.520;9.046;2022-10-16T16:12:01;19.50;99.90
44705;DHT22;30431;48.520;9.046;2022-10-16T16:14:30;19.40;99.90
44705;DHT22;30431;48.520;9.046;2022-10-16T16:16:58;19.20;99.90
44705;DHT22;30431;48.520;9.046;2022-10-16T16:19:27;19.10;99.90
44705;DHT22;30431;48.520;9.046;2022-10-16T16:21:54;19.00;99.90
44705;DHT22;30431;48.520;9.046;2022-10-16T16:24:21;18.80;99.90
44705;DHT22;30431;48.520;9.046;2022-10-16T16:26:48;18.70;99.90
44705;DHT22;30431;48.520;9.046;2022-10-16T16:29:15;18.50;99.90
44705;DHT22;30431;48.520;9.046;2022-10-16T16:31:42;18.40;99.90
44705;DHT22;30431;48.520;9.046;2022-10-16T16:34:10;18.20;99.90
44705;DHT22;30431;48.520;9.046;2022-10-16T16:36:37;18.10;99.90
44705;DHT22;30431;48.520;9.046;2022-10-16T16:39:07;17.90;99.90
44705;DHT22;30431;48.520;9.046;2022-10-16T16:41:34;17.80;99.90
44705;DHT22;30431;48.520;9.046;2022-10-16T16:44:06;17.60;99.90
44705;DHT22;30431;48.520;9.046;2022-10-16T16:46:34;17.50;99.90
44705;DHT22;30431;48.520;9.046;2022-10-16T16:49:06;17.40;99.90
44705;DHT22;30431;48.520;9.046;2022-10-16T16:51:35;17.40;99.90
44705;DHT22;30431;48.520;9.046;2022-10-16T16:54:06;17.30;99.90
44705;DHT22;30431;48.520;9.046;2022-10-16T16:56:36;17.20;99.90
44705;DHT22;30431;48.520;9.046;2022-10-16T16:59:05;17.10;99.90
44705;DHT22;30431;48.520;9.046;2022-10-16T17:01:32;17.00;99.90
44705;DHT22;30431;48.520;9.046;2022-10-16T17:04:05;16.90;99.90
44705;DHT22;30431;48.520;9.046;2022-10-16T17:06:32;16.80;99.90
44705;DHT22;30431;48.520;9.046;2022-10-16T17:09:03;16.70;99.90
44705;DHT22;30431;48.520;9.046;2022-10-16T17:11:31;16.70;99.90
44705;DHT22;30431;48.520;9.046;2022-10-16T17:14:02;16.60;99.90
44705;DHT22;30431;48.520;9.046;2022-10-16T17:16:32;16.50;99.90
44705;DHT22;30431;48.520;9.046;2022-10-16T17:19:03;16.40;99.90
44705;DHT22;30431;48.520;9.046;2022-10-16T17:21:33;16.30;99.90
44705;DHT22;30431;48.520;9.046;2022-10-16T17:24:05;16.30;99.90
44705;DHT22;30431;48.520;9.046;2022-10-16T17:26:33;16.20;99.90
44705;DHT22;30431;48.520;9.046;2022-10-16T17:29:07;16.10;99.90
44705;DHT22;30431;48.520;9.046;2022-10-16T17:31:37;16.10;99.90
44705;DHT22;30431;48.520;9.046;2022-10-16T17:34:06;16.00;99.90
44705;DHT22;30431;48.520;9.046;2022-10-16T17:36:39;15.90;99.90
44705;DHT22;30431;48.520;9.046;2022-10-16T17:39:14;15.80;99.90
44705;DHT22;30431;48.520;9.046;2022-10-16T17:41:44;15.70;99.90
44705;DHT22;30431;48.520;9.046;2022-10-16T17:44:15;15.70;99.90
44705;DHT22;30431;48.520;9.046;2022-10-16T17:46:52;15.60;99.90
44705;DHT22;30431;48.520;9.046;2022-10-16T17:49:22;15.50;99.90
44705;DHT22;30431;48.520;9.046;2022-10-16T17:51:52;15.50;99.90
44705;DHT22;30431;48.520;9.046;2022-10-16T17:54:19;15.50;99.90
44705;DHT22;30431;48.520;9.046;2022-10-16T17:56:46;15.40;99.90
44705;DHT22;30431;48.520;9.046;2022-10-16T17:59:14;15.30;99.90
44705;DHT22;30431;48.520;9.046;2022-10-16T18:01:44;15.20;99.90
44705;DHT22;30431;48.520;9.046;2022-10-16T18:04:16;15.10;99.90
44705;DHT22;30431;48.520;9.046;2022-10-16T18:06:44;15.10;99.90
44705;DHT22;30431;48.520;9.046;2022-10-16T18:09:14;15.00;99.90
44705;DHT22;30431;48.520;9.046;2022-10-16T18:11:45;15.00;99.90
44705;DHT22;30431;48.520;9.046;2022-10-16T18:14:14;14.90;99.90
44705;DHT22;30431;48.520;9.046;2022-10-16T18:16:42;14.90;99.90